sensor_id;sensor_type;location;lat;lon;timestamp;temperature;humidity
2112;DHT22;1062;52.538;13.400;2023-06-22T00:00:42;20.60;99.90
2112;DHT22;1062;52.538;13.400;2023-06-22T00:03:09;20.60;99.90
2112;DHT22;1062;52.538;13.400;2023-06-22T00:05:34;20.50;99.90
2112;DHT22;1062;52.538;13.400;2023-06-22T00:08:03;20.50;99.90
2112;DHT22;1062;52.538;13.400;2023-06-22T00:10:29;20.50;99.90
2112;DHT22;1062;52.538;13.400;2023-06-22T00:12:55;20.50;99.90
2112;DHT22;1062;52.538;13.400;2023-06-22T00:15:20;20.50;99.90
2112;DHT22;1062;52.538;13.400;2023-06-22T00:17:46;20.40;99.90
2112;DHT22;1062;52.538;13.400;2023-06-22T00:20:12;20.40;99.90
2112;DHT22;1062;52.538;13.400;2023-06-22T00:22:38;20.30;99.90
2112;DHT22;1062;52.538;13.400;2023-06-22T00:25:06;20.30;99.90
2112;DHT22;1062;52.538;13.400;2023-06-22T00:27:32;20.30;99.90
2112;DHT22;1062;52.538;13.400;2023-06-22T00:29:57;20.20;99.90
2112;DHT22;1062;52.538;13.400;2023-06-22T00:32:23;20.20;99.90
2112;DHT22;1062;52.538;13.400;2023-06-22T00:34:48;20.20;99.90
2112;DHT22;1062;52.538;13.400;2023-06-22T00:37:15;20.10;99.90
2112;DHT22;1062;52.538;13.400;2023-06-22T00:39:42;20.10;99.90
2112;DHT22;1062;52.538;13.400;2023-06-22T00:42:08;20.10;99.90
2112;DHT22;1062;52.538;13.400;2023-06-22T00:44:35;20.10;99.90
2112;DHT22;1062;52.538;13.400;2023-06-22T00:47:01;20.10;99.90
2112;DHT22;1062;52.538;13.400;2023-06-22T00:49:27;20.00;99.90
2112;DHT22;1062;52.538;13.400;2023-06-22T00:51:53;20.00;99.90
2112;DHT22;1062;52.538;13.400;2023-06-22T00:54:19;20.00;99.90
2112;DHT22;1062;52.538;13.400;2023-06-22T00:56:51;19.90;99.90
2112;DHT22;1062;52.538;13.400;2023-06-22T00:59:18;19.90;99.90
2112;DHT22;1062;52.538;13.400;2023-06-22T01:01:44;19.80;99.90
2112;DHT22;1062;52.538;13.400;2023-06-22T01:04:10;19.80;99.90
2112;DHT22;1062;52.538;13.400;2023-06-22T01:06:44;19.80;99.90
2112;DHT22;1062;52.538;13.400;2023-06-22T01:09:21;19.80;99.90
2112;DHT22;1062;52.538;13.400;2023-06-22T01:11:54;19.70;99.90
2112;DHT22;1062;52.538;13.400;2023-06-22T01:14:47;19.70;99.90
2112;DHT22;1062;52.538;13.400;2023-06-22T01:17:15;19.70;99.90
2112;DHT22;1062;52.538;13.400;2023-06-22T01:19:48;19.60;99.90
2112;DHT22;1062;52.538;13.400;2023-06-22T01:22:25;19.60;99.90
2112;DHT22;1062;52.538;13.400;2023-06-22T01:25:10;19.60;99.90
2112;DHT22;1062;52.538;13.400;2023-06-22T01:28:12;19.60;99.90
2112;DHT22;1062;52.538;13.400;2023-06-22T01:30:43;19.50;99.90
2112;DHT22;1062;52.538;13.400;2023-06-22T01:33:12;19.50;99.90
2112;DHT22;1062;52.538;13.400;2023-06-22T01:35:39;19.50;99.90
2112;DHT22;1062;52.538;13.400;2023-06-22T01:38:05;19.50;99.90
2112;DHT22;1062;52.538;13.400;2023-06-22T01:40:33;19.50;99.90
2112;DHT22;1062;52.538;13.400;2023-06-22T01:43:00;19.40;99.90
2112;DHT22;1062;52.538;13.400;2023-06-22T01:45:27;19.40;99.90
2112;DHT22;1062;52.538;13.400;2023-06-22T01:47:54;19.40;99.90
2112;DHT22;1062;52.538;13.400;2023-06-22T01:50:21;19.30;99.90
2112;DHT22;1062;52.538;13.400;2023-06-22T01:52:46;19.30;99.90
2112;DHT22;1062;52.538;13.400;2023-06-22T01:55:12;19.30;99.90
2112;DHT22;1062;52.538;13.400;2023-06-22T01:57:38;19.30;99.90
2112;DHT22;1062;52.538;13.400;2023-06-22T02:00:07;19.20;99.90
2112;DHT22;1062;52.538;13.400;2023-06-22T02:05:43;19.20;99.90
2112;DHT22;1062;52.538;13.400;2023-06-22T02:08:20;19.20;99.90
2112;DHT22;1062;52.538;13.400;2023-06-22T02:10:46;19.20;99.90
2112;DHT22;1062;52.538;13.400;2023-06-22T02:13:14;19.30;99.90
2112;DHT22;1062;52.538;13.400;2023-06-22T02:15:40;19.20;99.90
2112;DHT22;1062;52.538;13.400;2023-06-22T02:18:06;19.20;99.90
2112;DHT22;1062;52.538;13.400;2023-06-22T02:20:31;19.20;99.90
2112;DHT22;1062;52.538;13.400;2023-06-22T02:22:57;19.20;99.90
2112;DHT22;1062;52.538;13.400;2023-06-22T02:25:23;19.20;99.90
2112;DHT22;1062;52.538;13.400;2023-06-22T02:27:48;19.20;99.90
2112;DHT22;1062;52.538;13.400;2023-06-22T02:30:15;19.20;99.90
2112;DHT22;1062;52.538;13.400;2023-06-22T02:32:41;19.20;99.90
2112;DHT22;1062;52.538;13.400;2023-06-22T02:35:08;19.20;99.90
2112;DHT22;1062;52.538;13.400;2023-06-22T02:37:38;19.20;99.90
2112;DHT22;1062;52.538;13.400;2023-06-22T02:40:07;19.30;99.90
2112;DHT22;1062;52.538;13.400;2023-06-22T02:42:34;19.30;99.90
2112;DHT22;1062;52.538;13.400;2023-06-22T02:45:00;19.30;99.90
2112;DHT22;1062;52.538;13.400;2023-06-22T02:47:26;19.40;99.90
2112;DHT22;1062;52.538;13.400;2023-06-22T02:49:52;19.40;99.90
2112;DHT22;1062;52.538;13.400;2023-06-22T02:52:17;19.50;99.90
2112;DHT22;1062;52.538;13.400;2023-06-22T02:54:43;19.50;99.90
2112;DHT22;1062;52.538;13.400;2023-06-22T02:57:10;19.60;99.90
2112;DHT22;1062;52.538;13.400;2023-06-22T02:59:41;19.60;99.90
2112;DHT22;1062;52.538;13.400;2023-06-22T03:02:08;19.60;99.90
2112;DHT22;1062;52.538;13.400;2023-06-22T03:04:34;19.60;99.90
2112;DHT22;1062;52.538;13.400;2023-06-22T03:07:00;19.60;99.90
2112;DHT22;1062;52.538;13.400;2023-06-22T03:09:27;19.70;99.90
2112;DHT22;1062;52.538;13.400;2023-06-22T03:11:53;19.70;99.90
2112;DHT22;1062;52.538;13.400;2023-06-22T03:14:19;19.60;99.90
2112;DHT22;1062;52.538;13.400;2023-06-22T03:16:45;19.60;99.90
2112;DHT22;1062;52.538;13.400;2023-06-22T03:19:10;19.70;99.90
2112;DHT22;1062;52.538;13.400;2023-06-22T03:21:37;19.70;99.90
2112;DHT22;1062;52.538;13.400;2023-06-22T03:24:07;19.70;99.90
2112;DHT22;1062;52.538;13.400;2023-06-22T03:26:33;19.80;99.90
2112;DHT22;1062;52.538;13.400;2023-06-22T03:28:59;19.80;99.90
2112;DHT22;1062;52.538;13.400;2023-06-22T03:31:25;19.80;99.90
2112;DHT22;1062;52.538;13.400;2023-06-22T03:33:50;19.80;99.90
2112;DHT22;1062;52.538;13.400;2023-06-22T03:36:17;19.80;99.90
2112;DHT22;1062;52.538;13.400;2023-06-22T03:38:46;19.80;99.90
2112;DHT22;1062;52.538;13.400;2023-06-22T03:41:12;19.90;99.90
2112;DHT22;1062;52.538;13.400;2023-06-22T03:43:38;19.90;99.90
2112;DHT22;1062;52.538;13.400;2023-06-22T03:46:03;19.90;99.90
2112;DHT22;1062;52.538;13.400;2023-06-22T03:48:29;20.00;99.90
2112;DHT22;1062;52.538;13.400;2023-06-22T03:50:54;20.00;99.90
2112;DHT22;1062;52.538;13.400;2023-06-22T03:53:20;19.90;99.90
2112;DHT22;1062;52.538;13.400;2023-06-22T03:55:52;19.90;99.90
2112;DHT22;1062;52.538;13.400;2023-06-22T03:58:19;20.00;99.90
2112;DHT22;1062;52.538;13.400;2023-06-22T04:00:49;20.00;99.90
2112;DHT22;1062;52.538;13.400;2023-06-22T04:03:15;20.00;99.90
2112;DHT22;1062;52.538;13.400;2023-06-22T04:05:41;20.10;99.90
2112;DHT22;1062;52.538;13.400;2023-06-22T04:08:07;20.10;99.90
2112;DHT22;1062;52.538;13.400;2023-06-22T04:10:33;20.20;99.90
2112;DHT22;1062;52.538;13.400;2023-06-22T04:13:00;20.30;99.90
2112;DHT22;1062;52.538;13.400;2023-06-22T04:15:26;20.50;99.90
2112;DHT22;1062;52.538;13.400;2023-06-22T04:17:51;21.00;99.90
2112;DHT22;1062;52.538;13.400;2023-06-22T04:20:17;21.70;99.90
2112;DHT22;1062;52.538;13.400;2023-06-22T04:22:42;22.20;99.90
2112;DHT22;1062;52.538;13.400;2023-06-22T04:25:08;22.80;99.90
2112;DHT22;1062;52.538;13.400;2023-06-22T04:27:34;23.20;99.90
2112;DHT22;1062;52.538;13.400;2023-06-22T04:30:08;23.50;99.90
2112;DHT22;1062;52.538;13.400;2023-06-22T04:32:34;23.50;99.90
2112;DHT22;1062;52.538;13.400;2023-06-22T04:35:04;23.80;99.90
2112;DHT22;1062;52.538;13.400;2023-06-22T04:37:30;24.00;99.90
2112;DHT22;1062;52.538;13.400;2023-06-22T04:39:56;24.20;99.90
2112;DHT22;1062;52.538;13.400;2023-06-22T04:42:22;24.20;99.90
2112;DHT22;1062;52.538;13.400;2023-06-22T04:44:47;24.00;99.90
2112;DHT22;1062;52.538;13.400;2023-06-22T04:47:13;24.10;99.90
2112;DHT22;1062;52.538;13.400;2023-06-22T04:49:39;24.00;99.90
2112;DHT22;1062;52.538;13.400;2023-06-22T04:52:07;24.00;99.90
2112;DHT22;1062;52.538;13.400;2023-06-22T04:54:34;24.10;99.90
2112;DHT22;1062;52.538;13.400;2023-06-22T04:57:05;24.10;99.90
2112;DHT22;1062;52.538;13.400;2023-06-22T04:59:35;24.20;99.90
2112;DHT22;1062;52.538;13.400;2023-06-22T05:02:02;24.40;99.90
2112;DHT22;1062;52.538;13.400;2023-06-22T05:04:30;24.50;99.90
2112;DHT22;1062;52.538;13.400;2023-06-22T05:07:02;24.50;99.90
2112;DHT22;1062;52.538;13.400;2023-06-22T05:09:28;24.70;99.90
2112;DHT22;1062;52.538;13.400;2023-06-22T05:11:54;24.60;99.90
2112;DHT22;1062;52.538;13.400;2023-06-22T05:14:20;24.60;99.90
2112;DHT22;1062;52.538;13.400;2023-06-22T05:16:46;24.60;99.90
2112;DHT22;1062;52.538;13.400;2023-06-22T05:19:12;24.40;99.90
2112;DHT22;1062;52.538;13.400;2023-06-22T05:21:38;24.40;99.90
2112;DHT22;1062;52.538;13.400;2023-06-22T05:24:04;24.40;99.90
2112;DHT22;1062;52.538;13.400;2023-06-22T05:26:31;24.00;99.90
2112;DHT22;1062;52.538;13.400;2023-06-22T05:28:58;23.80;99.90
2112;DHT22;1062;52.538;13.400;2023-06-22T05:31:24;23.60;99.90
2112;DHT22;1062;52.538;13.400;2023-06-22T05:33:51;23.40;99.90
2112;DHT22;1062;52.538;13.400;2023-06-22T05:36:17;23.40;99.90
2112;DHT22;1062;52.538;13.400;2023-06-22T05:38:45;23.30;99.90
2112;DHT22;1062;52.538;13.400;2023-06-22T05:41:11;23.20;99.90
2112;DHT22;1062;52.538;13.400;2023-06-22T05:43:37;23.20;99.90
2112;DHT22;1062;52.538;13.400;2023-06-22T05:46:03;23.20;99.90
2112;DHT22;1062;52.538;13.400;2023-06-22T05:48:29;23.10;99.90
2112;DHT22;1062;52.538;13.400;2023-06-22T05:50:55;23.00;99.90
2112;DHT22;1062;52.538;13.400;2023-06-22T05:53:21;23.00;99.90
2112;DHT22;1062;52.538;13.400;2023-06-22T05:55:46;23.00;99.90
2112;DHT22;1062;52.538;13.400;2023-06-22T05:58:12;23.60;99.90
2112;DHT22;1062;52.538;13.400;2023-06-22T06:00:39;24.00;99.90
2112;DHT22;1062;52.538;13.400;2023-06-22T06:03:05;24.20;99.90
2112;DHT22;1062;52.538;13.400;2023-06-22T06:05:31;24.50;99.90
2112;DHT22;1062;52.538;13.400;2023-06-22T06:07:58;24.70;99.90
2112;DHT22;1062;52.538;13.400;2023-06-22T06:10:24;24.80;99.90
2112;DHT22;1062;52.538;13.400;2023-06-22T06:12:50;24.50;99.90
2112;DHT22;1062;52.538;13.400;2023-06-22T06:15:16;24.70;99.90
2112;DHT22;1062;52.538;13.400;2023-06-22T06:17:52;24.70;99.90
2112;DHT22;1062;52.538;13.400;2023-06-22T06:20:19;24.80;99.90
2112;DHT22;1062;52.538;13.400;2023-06-22T06:22:45;25.20;99.90
2112;DHT22;1062;52.538;13.400;2023-06-22T06:25:11;25.40;99.90
2112;DHT22;1062;52.538;13.400;2023-06-22T06:27:42;26.00;99.90
2112;DHT22;1062;52.538;13.400;2023-06-22T06:30:08;26.20;99.90
2112;DHT22;1062;52.538;13.400;2023-06-22T06:32:34;26.50;99.90
2112;DHT22;1062;52.538;13.400;2023-06-22T06:35:00;26.50;99.90
2112;DHT22;1062;52.538;13.400;2023-06-22T06:37:25;26.70;99.90
2112;DHT22;1062;52.538;13.400;2023-06-22T06:39:51;27.00;99.90
2112;DHT22;1062;52.538;13.400;2023-06-22T06:42:16;27.30;99.90
2112;DHT22;1062;52.538;13.400;2023-06-22T06:44:42;27.50;99.90
2112;DHT22;1062;52.538;13.400;2023-06-22T06:47:07;27.20;99.90
2112;DHT22;1062;52.538;13.400;2023-06-22T06:49:33;27.70;99.90
2112;DHT22;1062;52.538;13.400;2023-06-22T06:51:59;27.70;99.90
2112;DHT22;1062;52.538;13.400;2023-06-22T06:54:25;27.80;99.90
2112;DHT22;1062;52.538;13.400;2023-06-22T06:56:50;28.10;99.90
2112;DHT22;1062;52.538;13.400;2023-06-22T06:59:16;28.30;99.90
2112;DHT22;1062;52.538;13.400;2023-06-22T07:01:42;28.90;99.90
2112;DHT22;1062;52.538;13.400;2023-06-22T07:04:09;29.20;99.90
2112;DHT22;1062;52.538;13.400;2023-06-22T07:06:35;29.10;99.90
2112;DHT22;1062;52.538;13.400;2023-06-22T07:09:00;29.10;99.90
2112;DHT22;1062;52.538;13.400;2023-06-22T07:11:26;29.60;99.90
2112;DHT22;1062;52.538;13.400;2023-06-22T07:13:52;29.90;99.90
2112;DHT22;1062;52.538;13.400;2023-06-22T07:16:18;30.00;99.90
2112;DHT22;1062;52.538;13.400;2023-06-22T07:18:43;29.70;99.90
2112;DHT22;1062;52.538;13.400;2023-06-22T07:21:09;29.60;99.90
2112;DHT22;1062;52.538;13.400;2023-06-22T07:23:35;29.50;99.90
2112;DHT22;1062;52.538;13.400;2023-06-22T07:26:00;30.30;99.90
2112;DHT22;1062;52.538;13.400;2023-06-22T07:28:31;30.50;99.90
2112;DHT22;1062;52.538;13.400;2023-06-22T07:31:02;29.90;99.90
2112;DHT22;1062;52.538;13.400;2023-06-22T07:33:28;30.10;99.90
2112;DHT22;1062;52.538;13.400;2023-06-22T07:35:53;30.50;99.10
2112;DHT22;1062;52.538;13.400;2023-06-22T07:38:19;30.40;98.30
2112;DHT22;1062;52.538;13.400;2023-06-22T07:40:45;29.80;99.20
2112;DHT22;1062;52.538;13.400;2023-06-22T07:43:11;29.70;98.40
2112;DHT22;1062;52.538;13.400;2023-06-22T07:45:38;29.70;98.70
2112;DHT22;1062;52.538;13.400;2023-06-22T07:48:05;29.30;99.10
2112;DHT22;1062;52.538;13.400;2023-06-22T07:50:31;29.40;98.70
2112;DHT22;1062;52.538;13.400;2023-06-22T07:52:56;30.30;96.50
2112;DHT22;1062;52.538;13.400;2023-06-22T07:55:22;30.40;95.50
2112;DHT22;1062;52.538;13.400;2023-06-22T07:57:49;30.20;95.60
2112;DHT22;1062;52.538;13.400;2023-06-22T08:00:17;30.50;96.10
2112;DHT22;1062;52.538;13.400;2023-06-22T08:02:45;30.00;95.60
2112;DHT22;1062;52.538;13.400;2023-06-22T08:05:11;29.70;96.90
2112;DHT22;1062;52.538;13.400;2023-06-22T08:07:37;29.80;96.40
2112;DHT22;1062;52.538;13.400;2023-06-22T08:10:04;29.70;97.30
2112;DHT22;1062;52.538;13.400;2023-06-22T08:12:30;29.20;97.90
2112;DHT22;1062;52.538;13.400;2023-06-22T08:14:56;29.70;96.60
2112;DHT22;1062;52.538;13.400;2023-06-22T08:17:23;29.50;96.40
2112;DHT22;1062;52.538;13.400;2023-06-22T08:19:48;29.40;96.10
2112;DHT22;1062;52.538;13.400;2023-06-22T08:22:15;28.80;96.90
2112;DHT22;1062;52.538;13.400;2023-06-22T08:24:41;28.80;97.70
2112;DHT22;1062;52.538;13.400;2023-06-22T08:27:10;28.70;96.60
2112;DHT22;1062;52.538;13.400;2023-06-22T08:29:39;28.00;96.60
2112;DHT22;1062;52.538;13.400;2023-06-22T08:32:05;27.80;97.60
2112;DHT22;1062;52.538;13.400;2023-06-22T08:34:30;28.00;98.20
2112;DHT22;1062;52.538;13.400;2023-06-22T08:36:56;27.80;98.70
2112;DHT22;1062;52.538;13.400;2023-06-22T08:39:21;27.80;98.40
2112;DHT22;1062;52.538;13.400;2023-06-22T08:41:47;28.20;98.10
2112;DHT22;1062;52.538;13.400;2023-06-22T08:44:13;27.90;98.60
2112;DHT22;1062;52.538;13.400;2023-06-22T08:46:39;27.80;97.80
2112;DHT22;1062;52.538;13.400;2023-06-22T08:49:06;27.90;97.60
2112;DHT22;1062;52.538;13.400;2023-06-22T08:51:32;27.70;96.70
2112;DHT22;1062;52.538;13.400;2023-06-22T08:53:58;27.50;98.50
2112;DHT22;1062;52.538;13.400;2023-06-22T08:56:23;27.80;98.40
2112;DHT22;1062;52.538;13.400;2023-06-22T08:58:49;27.60;99.40
2112;DHT22;1062;52.538;13.400;2023-06-22T09:01:15;27.80;98.90
2112;DHT22;1062;52.538;13.400;2023-06-22T09:03:43;27.70;98.90
2112;DHT22;1062;52.538;13.400;2023-06-22T09:06:09;27.80;98.00
2112;DHT22;1062;52.538;13.400;2023-06-22T09:08:36;27.70;98.10
2112;DHT22;1062;52.538;13.400;2023-06-22T09:11:01;28.00;98.90
2112;DHT22;1062;52.538;13.400;2023-06-22T09:13:30;28.00;98.50
2112;DHT22;1062;52.538;13.400;2023-06-22T09:15:56;28.00;97.70
2112;DHT22;1062;52.538;13.400;2023-06-22T09:18:21;28.30;97.90
2112;DHT22;1062;52.538;13.400;2023-06-22T09:20:47;28.40;97.50
2112;DHT22;1062;52.538;13.400;2023-06-22T09:23:13;28.80;95.80
2112;DHT22;1062;52.538;13.400;2023-06-22T09:25:38;28.80;96.30
2112;DHT22;1062;52.538;13.400;2023-06-22T09:28:05;28.80;96.40
2112;DHT22;1062;52.538;13.400;2023-06-22T09:30:31;28.50;96.60
2112;DHT22;1062;52.538;13.400;2023-06-22T09:32:56;28.80;95.30
2112;DHT22;1062;52.538;13.400;2023-06-22T09:35:22;28.50;95.00
2112;DHT22;1062;52.538;13.400;2023-06-22T09:37:47;28.70;94.10
2112;DHT22;1062;52.538;13.400;2023-06-22T09:40:13;28.60;94.30
2112;DHT22;1062;52.538;13.400;2023-06-22T09:42:42;28.40;94.40
2112;DHT22;1062;52.538;13.400;2023-06-22T09:45:08;28.50;95.00
2112;DHT22;1062;52.538;13.400;2023-06-22T09:47:33;28.70;95.00
2112;DHT22;1062;52.538;13.400;2023-06-22T09:49:59;28.30;94.40
2112;DHT22;1062;52.538;13.400;2023-06-22T09:52:25;29.00;94.50
2112;DHT22;1062;52.538;13.400;2023-06-22T09:54:50;29.30;94.30
2112;DHT22;1062;52.538;13.400;2023-06-22T09:57:16;29.30;94.40
2112;DHT22;1062;52.538;13.400;2023-06-22T09:59:42;29.40;94.00
2112;DHT22;1062;52.538;13.400;2023-06-22T10:02:08;29.20;94.50
2112;DHT22;1062;52.538;13.400;2023-06-22T10:04:34;29.20;94.20
2112;DHT22;1062;52.538;13.400;2023-06-22T10:07:01;28.90;94.40
2112;DHT22;1062;52.538;13.400;2023-06-22T10:09:27;29.20;94.20
2112;DHT22;1062;52.538;13.400;2023-06-22T10:11:53;29.10;94.30
2112;DHT22;1062;52.538;13.400;2023-06-22T10:14:18;29.20;94.80
2112;DHT22;1062;52.538;13.400;2023-06-22T10:16:44;29.30;94.80
2112;DHT22;1062;52.538;13.400;2023-06-22T10:19:10;29.50;94.10
2112;DHT22;1062;52.538;13.400;2023-06-22T10:21:35;29.30;95.30
2112;DHT22;1062;52.538;13.400;2023-06-22T10:24:01;29.40;94.80
2112;DHT22;1062;52.538;13.400;2023-06-22T10:26:34;29.30;94.00
2112;DHT22;1062;52.538;13.400;2023-06-22T10:29:01;29.40;94.10
2112;DHT22;1062;52.538;13.400;2023-06-22T10:31:27;29.10;94.40
2112;DHT22;1062;52.538;13.400;2023-06-22T10:33:53;28.90;95.00
2112;DHT22;1062;52.538;13.400;2023-06-22T10:36:19;29.10;94.80
2112;DHT22;1062;52.538;13.400;2023-06-22T10:38:45;29.10;95.20
2112;DHT22;1062;52.538;13.400;2023-06-22T10:41:12;29.10;95.10
2112;DHT22;1062;52.538;13.400;2023-06-22T10:43:38;29.50;95.30
2112;DHT22;1062;52.538;13.400;2023-06-22T10:46:03;29.70;94.40
2112;DHT22;1062;52.538;13.400;2023-06-22T10:48:29;29.40;95.00
2112;DHT22;1062;52.538;13.400;2023-06-22T10:50:55;29.20;95.00
2112;DHT22;1062;52.538;13.400;2023-06-22T10:53:21;29.20;95.00
2112;DHT22;1062;52.538;13.400;2023-06-22T10:55:47;28.90;95.00
2112;DHT22;1062;52.538;13.400;2023-06-22T10:58:12;28.50;96.40
2112;DHT22;1062;52.538;13.400;2023-06-22T11:00:38;28.60;96.40
2112;DHT22;1062;52.538;13.400;2023-06-22T11:03:04;28.30;95.80
2112;DHT22;1062;52.538;13.400;2023-06-22T11:05:29;28.40;96.30
2112;DHT22;1062;52.538;13.400;2023-06-22T11:07:55;28.40;96.20
2112;DHT22;1062;52.538;13.400;2023-06-22T11:10:20;28.40;96.20
2112;DHT22;1062;52.538;13.400;2023-06-22T11:12:46;28.60;96.60
2112;DHT22;1062;52.538;13.400;2023-06-22T11:15:11;28.60;95.90
2112;DHT22;1062;52.538;13.400;2023-06-22T11:17:37;28.40;95.90
2112;DHT22;1062;52.538;13.400;2023-06-22T11:20:03;28.30;96.50
2112;DHT22;1062;52.538;13.400;2023-06-22T11:22:37;28.30;96.30
2112;DHT22;1062;52.538;13.400;2023-06-22T11:25:05;28.10;97.10
2112;DHT22;1062;52.538;13.400;2023-06-22T11:27:31;28.20;96.20
2112;DHT22;1062;52.538;13.400;2023-06-22T11:29:56;28.40;96.30
2112;DHT22;1062;52.538;13.400;2023-06-22T11:32:22;28.60;95.20
2112;DHT22;1062;52.538;13.400;2023-06-22T11:34:48;28.80;95.40
2112;DHT22;1062;52.538;13.400;2023-06-22T11:37:14;28.90;94.70
2112;DHT22;1062;52.538;13.400;2023-06-22T11:39:41;28.90;95.30
2112;DHT22;1062;52.538;13.400;2023-06-22T11:42:07;29.00;94.80
2112;DHT22;1062;52.538;13.400;2023-06-22T11:44:32;28.90;95.90
2112;DHT22;1062;52.538;13.400;2023-06-22T11:46:58;28.80;94.70
2112;DHT22;1062;52.538;13.400;2023-06-22T11:49:26;28.60;95.20
2112;DHT22;1062;52.538;13.400;2023-06-22T11:51:52;28.80;94.90
2112;DHT22;1062;52.538;13.400;2023-06-22T11:54:18;28.80;95.00
2112;DHT22;1062;52.538;13.400;2023-06-22T11:56:43;28.80;94.50
2112;DHT22;1062;52.538;13.400;2023-06-22T11:59:09;28.60;94.70
2112;DHT22;1062;52.538;13.400;2023-06-22T12:01:34;28.30;94.60
2112;DHT22;1062;52.538;13.400;2023-06-22T12:04:00;28.40;94.70
2112;DHT22;1062;52.538;13.400;2023-06-22T12:06:26;28.70;95.00
2112;DHT22;1062;52.538;13.400;2023-06-22T12:08:51;28.80;94.30
2112;DHT22;1062;52.538;13.400;2023-06-22T12:11:17;28.70;94.90
2112;DHT22;1062;52.538;13.400;2023-06-22T12:13:42;28.60;94.60
2112;DHT22;1062;52.538;13.400;2023-06-22T12:16:08;28.50;94.30
2112;DHT22;1062;52.538;13.400;2023-06-22T12:18:34;28.70;94.40
2112;DHT22;1062;52.538;13.400;2023-06-22T12:21:02;28.90;94.40
2112;DHT22;1062;52.538;13.400;2023-06-22T12:23:27;29.00;94.20
2112;DHT22;1062;52.538;13.400;2023-06-22T12:25:53;29.30;93.80
2112;DHT22;1062;52.538;13.400;2023-06-22T12:28:19;29.30;93.80
2112;DHT22;1062;52.538;13.400;2023-06-22T12:30:44;29.30;93.80
2112;DHT22;1062;52.538;13.400;2023-06-22T12:33:10;29.30;93.70
2112;DHT22;1062;52.538;13.400;2023-06-22T12:35:35;29.30;93.90
2112;DHT22;1062;52.538;13.400;2023-06-22T12:38:01;29.20;93.80
2112;DHT22;1062;52.538;13.400;2023-06-22T12:40:28;29.00;94.00
2112;DHT22;1062;52.538;13.400;2023-06-22T12:42:53;28.90;94.50
2112;DHT22;1062;52.538;13.400;2023-06-22T12:45:19;28.70;94.80
2112;DHT22;1062;52.538;13.400;2023-06-22T12:47:46;28.80;94.30
2112;DHT22;1062;52.538;13.400;2023-06-22T12:50:12;28.80;94.70
2112;DHT22;1062;52.538;13.400;2023-06-22T12:52:39;28.50;94.50
2112;DHT22;1062;52.538;13.400;2023-06-22T12:55:06;28.50;94.80
2112;DHT22;1062;52.538;13.400;2023-06-22T12:57:35;28.60;95.00
2112;DHT22;1062;52.538;13.400;2023-06-22T13:00:00;28.50;95.10
2112;DHT22;1062;52.538;13.400;2023-06-22T13:02:26;28.70;95.00
2112;DHT22;1062;52.538;13.400;2023-06-22T13:04:52;28.90;94.90
2112;DHT22;1062;52.538;13.400;2023-06-22T13:07:18;28.90;94.60
2112;DHT22;1062;52.538;13.400;2023-06-22T13:09:43;29.00;94.40
2112;DHT22;1062;52.538;13.400;2023-06-22T13:12:11;29.10;94.20
2112;DHT22;1062;52.538;13.400;2023-06-22T13:14:37;28.90;94.00
2112;DHT22;1062;52.538;13.400;2023-06-22T13:17:03;29.00;94.90
2112;DHT22;1062;52.538;13.400;2023-06-22T13:19:28;29.10;94.40
2112;DHT22;1062;52.538;13.400;2023-06-22T13:21:58;29.30;94.10
2112;DHT22;1062;52.538;13.400;2023-06-22T13:24:23;29.10;95.00
2112;DHT22;1062;52.538;13.400;2023-06-22T13:26:49;29.00;94.00
2112;DHT22;1062;52.538;13.400;2023-06-22T13:29:14;28.90;94.30
2112;DHT22;1062;52.538;13.400;2023-06-22T13:31:40;28.80;94.20
2112;DHT22;1062;52.538;13.400;2023-06-22T13:34:05;29.10;94.80
2112;DHT22;1062;52.538;13.400;2023-06-22T13:36:31;29.40;94.20
2112;DHT22;1062;52.538;13.400;2023-06-22T13:38:57;29.40;94.10
2112;DHT22;1062;52.538;13.400;2023-06-22T13:41:22;29.20;93.80
2112;DHT22;1062;52.538;13.400;2023-06-22T13:43:48;29.30;94.40
2112;DHT22;1062;52.538;13.400;2023-06-22T13:46:14;29.20;94.20
2112;DHT22;1062;52.538;13.400;2023-06-22T13:48:39;29.10;93.90
2112;DHT22;1062;52.538;13.400;2023-06-22T13:51:05;29.00;94.40
2112;DHT22;1062;52.538;13.400;2023-06-22T13:53:31;28.90;94.20
2112;DHT22;1062;52.538;13.400;2023-06-22T13:55:56;28.80;94.70
2112;DHT22;1062;52.538;13.400;2023-06-22T13:58:23;29.00;94.90
2112;DHT22;1062;52.538;13.400;2023-06-22T14:00:48;29.00;94.60
2112;DHT22;1062;52.538;13.400;2023-06-22T14:03:14;29.00;94.50
2112;DHT22;1062;52.538;13.400;2023-06-22T14:05:42;29.00;94.90
2112;DHT22;1062;52.538;13.400;2023-06-22T14:08:08;29.10;94.90
2112;DHT22;1062;52.538;13.400;2023-06-22T14:10:34;28.90;94.70
2112;DHT22;1062;52.538;13.400;2023-06-22T14:12:59;29.00;94.70
2112;DHT22;1062;52.538;13.400;2023-06-22T14:15:26;28.80;95.20
2112;DHT22;1062;52.538;13.400;2023-06-22T14:17:52;28.70;95.20
2112;DHT22;1062;52.538;13.400;2023-06-22T14:20:18;28.80;95.40
2112;DHT22;1062;52.538;13.400;2023-06-22T14:22:43;28.90;94.70
2112;DHT22;1062;52.538;13.400;2023-06-22T14:25:09;28.90;94.60
2112;DHT22;1062;52.538;13.400;2023-06-22T14:27:35;28.90;94.90
2112;DHT22;1062;52.538;13.400;2023-06-22T14:30:00;28.90;95.00
2112;DHT22;1062;52.538;13.400;2023-06-22T14:32:27;29.10;94.90
2112;DHT22;1062;52.538;13.400;2023-06-22T14:34:55;29.00;94.60
2112;DHT22;1062;52.538;13.400;2023-06-22T14:37:20;29.10;95.00
2112;DHT22;1062;52.538;13.400;2023-06-22T14:39:46;29.00;94.90
2112;DHT22;1062;52.538;13.400;2023-06-22T14:42:11;29.00;95.10
2112;DHT22;1062;52.538;13.400;2023-06-22T14:44:37;29.00;94.70
2112;DHT22;1062;52.538;13.400;2023-06-22T14:47:03;28.90;94.70
2112;DHT22;1062;52.538;13.400;2023-06-22T14:49:29;28.80;95.00
2112;DHT22;1062;52.538;13.400;2023-06-22T14:51:55;28.90;95.00
2112;DHT22;1062;52.538;13.400;2023-06-22T14:54:20;28.90;94.90
2112;DHT22;1062;52.538;13.400;2023-06-22T14:56:47;28.80;95.00
2112;DHT22;1062;52.538;13.400;2023-06-22T14:59:13;28.90;95.40
2112;DHT22;1062;52.538;13.400;2023-06-22T15:01:40;28.90;95.00
2112;DHT22;1062;52.538;13.400;2023-06-22T15:04:05;28.90;95.00
2112;DHT22;1062;52.538;13.400;2023-06-22T15:06:31;28.80;95.10
2112;DHT22;1062;52.538;13.400;2023-06-22T15:08:57;28.70;95.20
2112;DHT22;1062;52.538;13.400;2023-06-22T15:11:22;28.70;95.30
2112;DHT22;1062;52.538;13.400;2023-06-22T15:13:48;28.80;95.40
2112;DHT22;1062;52.538;13.400;2023-06-22T15:16:14;28.80;95.60
2112;DHT22;1062;52.538;13.400;2023-06-22T15:18:39;28.80;95.20
2112;DHT22;1062;52.538;13.400;2023-06-22T15:21:06;28.70;95.80
2112;DHT22;1062;52.538;13.400;2023-06-22T15:23:32;28.80;95.50
2112;DHT22;1062;52.538;13.400;2023-06-22T15:26:00;28.90;95.60
2112;DHT22;1062;52.538;13.400;2023-06-22T15:28:27;29.00;95.50
2112;DHT22;1062;52.538;13.400;2023-06-22T15:30:53;29.00;95.50
2112;DHT22;1062;52.538;13.400;2023-06-22T15:33:19;28.90;95.00
2112;DHT22;1062;52.538;13.400;2023-06-22T15:35:44;28.90;95.30
2112;DHT22;1062;52.538;13.400;2023-06-22T15:38:10;28.80;95.40
2112;DHT22;1062;52.538;13.400;2023-06-22T15:40:36;28.80;95.90
2112;DHT22;1062;52.538;13.400;2023-06-22T15:43:01;28.70;95.50